Time;durP1;ratioP1;P1;durP2;ratioP2;P2;SDS_P1;SDS_P2;PMS_P1;PMS_P2;Temp;Humidity;BMP_temperature;BMP_pressure;BME280_temperature;BME280_humidity;BME280_pressure;Samples;Min_cycle;Max_cycle;Signal;HPM_P1;HPM_P2
2023/11/13 00:01:36;;;;;;;37.33;18.67;;;;;;;9.34;72.72;100818.03;5010983;28;20524;-48
2023/11/13 00:04:01;;;;;;;37.55;17.83;;;;;;;9.27;73.72;100805.78;5011758;28;20042;-47
2023/11/13 00:06:27;;;;;;;40.10;18.35;;;;;;;9.42;73.91;100802.56;5012258;28;20092;-45
2023/11/13 00:08:52;;;;;;;35.55;18.10;;;;;;;8.91;74.97;100789.50;5011942;28;20037;-44
2023/11/13 00:11:18;;;;;;;35.15;18.13;;;;;;;8.96;75.28;100774.91;5012129;28;20556;-44
2023/11/13 00:13:44;;;;;;;40.10;18.52;;;;;;;9.09;75.04;100770.78;5010818;28;20038;-46
2023/11/13 00:16:09;;;;;;;35.20;18.30;;;;;;;9.51;73.84;100776.72;5010542;28;20129;-43
2023/11/13 00:18:35;;;;;;;33.22;17.92;;;;;;;9.48;73.71;100780.97;5010181;28;20125;-50
2023/11/13 00:21:00;;;;;;;35.92;17.65;;;;;;;9.69;73.19;100784.81;5010912;28;20044;-44
2023/11/13 00:23:27;;;;;;;30.98;17.00;;;;;;;9.74;72.86;100785.75;5010520;28;20504;-44
2023/11/13 00:25:52;;;;;;;34.88;17.88;;;;;;;9.53;73.79;100790.59;4992425;28;20109;-44
2023/11/13 00:28:18;;;;;;;31.55;16.70;;;;;;;9.33;74.53;100779.88;5010558;28;20201;-45
2023/11/13 00:30:44;;;;;;;34.30;18.17;;;;;;;9.60;74.33;100771.66;5010815;28;20034;-48
2023/11/13 00:33:09;;;;;;;32.15;16.50;;;;;;;9.94;72.58;100759.16;5011383;28;20473;-44
2023/11/13 00:35:34;;;;;;;33.60;18.08;;;;;;;9.92;72.36;100759.09;5010432;28;20041;-44
2023/11/13 00:38:00;;;;;;;32.38;17.38;;;;;;;9.88;72.30;100759.91;5010938;28;20038;-44
2023/11/13 00:40:25;;;;;;;33.83;17.17;;;;;;;9.61;73.16;100752.56;5011051;28;20026;-43
2023/11/13 00:42:51;;;;;;;31.42;17.23;;;;;;;9.83;72.07;100750.28;4993027;28;20400;-44
2023/11/13 00:45:16;;;;;;;31.60;17.40;;;;;;;9.83;72.32;100753.75;5010350;28;20415;-45
2023/11/13 00:47:41;;;;;;;31.15;16.27;;;;;;;9.87;71.00;100739.94;5010287;28;20065;-46
2023/11/13 00:50:10;;;;;;;30.95;16.45;;;;;;;9.94;70.91;100748.72;4993254;28;20037;-43
2023/11/13 00:52:36;;;;;;;27.25;15.88;;;;;;;9.87;71.13;100744.28;5011174;28;20355;-45
2023/11/13 00:55:04;;;;;;;30.40;15.88;;;;;;;9.84;71.11;100734.69;5010552;28;20492;-44
2023/11/13 00:57:29;;;;;;;31.52;16.65;;;;;;;9.73;71.93;100729.34;5010784;28;20045;-46
2023/11/13 00:59:55;;;;;;;29.33;15.73;;;;;;;9.69;71.32;100730.16;5011248;28;20037;-49
2023/11/13 01:02:22;;;;;;;27.50;16.15;;;;;;;9.46;73.34;100726.31;5011209;28;20053;-45
2023/11/13 01:04:47;;;;;;;31.95;16.75;;;;;;;9.68;72.60;100722.31;5012900;28;20485;-48
2023/11/13 01:07:16;;;;;;;29.08;16.45;;;;;;;9.72;71.89;100727.56;5017013;28;20045;-45
2023/11/13 01:09:42;;;;;;;29.77;15.85;;;;;;;9.92;71.36;100734.78;5011818;28;20121;-47
2023/11/13 01:12:08;;;;;;;29.50;16.77;;;;;;;9.95;71.69;100730.50;5011007;28;20408;-45
2023/11/13 01:14:34;;;;;;;30.00;16.42;;;;;;;9.97;71.46;100733.13;5009469;28;20103;-45
2023/11/13 01:17:00;;;;;;;29.45;16.30;;;;;;;10.06;71.59;100734.09;5010334;28;20041;-43
2023/11/13 01:19:25;;;;;;;31.50;16.85;;;;;;;9.96;72.78;100745.28;4992800;28;20408;-48
2023/11/13 01:21:51;;;;;;;27.05;15.93;;;;;;;10.15;71.99;100742.06;5009674;28;20045;-45
2023/11/13 01:24:16;;;;;;;30.80;16.20;;;;;;;10.24;71.54;100750.88;5010017;28;20045;-44
2023/11/13 01:26:42;;;;;;;29.42;16.55;;;;;;;10.33;71.85;100748.38;5009354;28;20115;-44
2023/11/13 01:29:07;;;;;;;28.83;16.50;;;;;;;10.35;71.77;100746.69;4992392;28;20042;-47
2023/11/13 01:31:32;;;;;;;30.02;16.02;;;;;;;10.10;72.66;100738.53;5009482;28;20038;-47
2023/11/13 01:33:57;;;;;;;28.95;16.08;;;;;;;10.24;72.67;100730.03;5009737;28;20034;-44
2023/11/13 01:36:23;;;;;;;28.00;15.35;;;;;;;10.43;71.87;100726.81;5010721;28;20104;-46
2023/11/13 01:38:48;;;;;;;26.40;15.80;;;;;;;10.27;72.60;100730.06;5013744;28;20045;-48
2023/11/13 01:41:14;;;;;;;32.20;16.42;;;;;;;10.42;72.33;100730.28;5010698;28;20044;-44
2023/11/13 01:43:39;;;;;;;30.08;16.60;;;;;;;10.51;72.09;100725.16;5009552;28;20038;-45
2023/11/13 01:46:09;;;;;;;28.13;15.95;;;;;;;10.48;72.11;100732.94;5010056;28;20062;-48
2023/11/13 01:48:35;;;;;;;29.27;15.65;;;;;;;10.53;71.98;100726.03;5011595;28;20029;-45
2023/11/13 01:51:00;;;;;;;28.35;15.52;;;;;;;10.60;71.84;100729.59;5013732;28;20049;-44
2023/11/13 01:53:27;;;;;;;30.20;16.08;;;;;;;10.54;71.84;100717.38;4996584;28;20034;-44
2023/11/13 01:55:57;;;;;;;29.92;15.57;;;;;;;10.45;72.32;100707.72;5014091;28;20057;-46
2023/11/13 01:58:23;;;;;;;28.35;15.82;;;;;;;10.45;72.08;100705.09;5013907;28;20044;-49
2023/11/13 02:00:48;;;;;;;30.48;15.60;;;;;;;10.27;72.13;100702.28;5013570;28;20030;-47
2023/11/13 02:03:14;;;;;;;27.45;15.75;;;;;;;10.28;72.72;100697.94;5013954;28;20076;-45
2023/11/13 02:05:40;;;;;;;28.48;15.73;;;;;;;10.13;72.33;100703.81;5012959;28;20488;-48
2023/11/13 02:08:06;;;;;;;29.98;16.23;;;;;;;10.18;72.24;100698.72;5013121;28;20045;-44
2023/11/13 02:10:31;;;;;;;30.27;16.42;;;;;;;10.17;72.30;100695.22;5013212;28;20042;-45
2023/11/13 02:12:57;;;;;;;27.52;15.38;;;;;;;10.29;72.06;100694.50;5013506;28;20034;-45
2023/11/13 02:15:22;;;;;;;32.03;16.38;;;;;;;10.42;71.99;100696.38;5013171;28;20251;-45
2023/11/13 02:18:02;;;;;;;30.02;15.90;;;;;;;10.41;72.05;100694.63;5012655;28;20034;-48
2023/11/13 02:20:28;;;;;;;29.23;16.13;;;;;;;10.41;72.04;100686.81;5012848;28;20041;-46
2023/11/13 02:22:53;;;;;;;31.13;16.00;;;;;;;10.31;72.95;100679.72;5012865;28;20566;-45
2023/11/13 02:25:23;;;;;;;29.90;16.00;;;;;;;10.57;72.12;100668.75;5012778;28;20041;-44
2023/11/13 02:27:53;;;;;;;26.50;14.68;;;;;;;10.51;72.16;100654.78;5012315;28;20037;-52
2023/11/13 02:30:18;;;;;;;27.80;15.30;;;;;;;10.64;72.15;100648.81;5012755;28;20114;-46
2023/11/13 02:32:44;;;;;;;25.58;15.00;;;;;;;10.72;71.86;100638.47;5012418;28;20184;-45
2023/11/13 02:35:10;;;;;;;23.38;14.68;;;;;;;10.76;71.62;100632.41;5012282;28;20049;-46
2023/11/13 02:37:35;;;;;;;29.73;14.85;;;;;;;10.55;72.74;100639.16;4994256;28;20038;-47
2023/11/13 02:40:00;;;;;;;26.85;14.25;;;;;;;10.79;71.73;100638.53;5012717;28;20045;-48
2023/11/13 02:42:26;;;;;;;24.52;13.93;;;;;;;10.85;71.43;100642.94;5012500;28;20044;-44
2023/11/13 02:44:51;;;;;;;27.63;14.57;;;;;;;10.87;71.34;100652.50;5012548;28;20034;-48
2023/11/13 02:47:17;;;;;;;24.02;13.52;;;;;;;10.94;71.21;100667.34;5012299;28;20041;-47
2023/11/13 02:49:42;;;;;;;24.55;13.88;;;;;;;10.86;71.46;100668.13;5012030;28;20112;-46
2023/11/13 02:52:08;;;;;;;25.40;13.38;;;;;;;10.91;71.54;100674.28;5012272;28;20038;-46
2023/11/13 02:54:33;;;;;;;26.80;13.82;;;;;;;10.92;71.24;100682.09;5011773;28;20053;-44
2023/11/13 02:56:58;;;;;;;27.10;14.00;;;;;;;10.90;71.69;100681.25;5012906;28;20038;-44
2023/11/13 02:59:23;;;;;;;26.15;14.25;;;;;;;10.84;71.58;100686.41;5013292;28;20042;-50
2023/11/13 03:01:49;;;;;;;28.63;15.15;;;;;;;10.72;71.74;100682.78;5012747;28;20060;-46
2023/11/13 03:04:14;;;;;;;30.45;14.52;;;;;;;10.91;71.09;100687.31;5012612;28;20034;-46
2023/11/13 03:06:40;;;;;;;34.65;16.33;;;;;;;11.01;71.61;100691.75;5011504;28;20049;-47
2023/11/13 03:09:05;;;;;;;31.05;14.85;;;;;;;11.02;71.42;100697.84;5011972;28;20033;-46
2023/11/13 03:11:30;;;;;;;26.98;14.60;;;;;;;10.86;71.77;100692.47;5011549;28;20049;-47
2023/11/13 03:13:56;;;;;;;27.77;13.95;;;;;;;10.94;71.51;100693.44;4994358;28;20575;-44
2023/11/13 03:16:21;;;;;;;29.00;14.25;;;;;;;10.72;72.52;100688.88;5011737;28;20038;-46
2023/11/13 03:18:46;;;;;;;25.25;13.77;;;;;;;10.82;72.37;100688.09;5011531;28;20058;-49
2023/11/13 03:21:12;;;;;;;25.60;14.15;;;;;;;10.73;72.54;100680.22;5011763;28;20041;-46
2023/11/13 03:23:37;;;;;;;26.40;14.20;;;;;;;10.85;72.74;100664.69;5010774;28;20034;-47
2023/11/13 03:26:03;;;;;;;23.75;13.40;;;;;;;10.88;72.08;100664.69;5011703;28;20466;-45
2023/11/13 03:28:29;;;;;;;27.70;14.05;;;;;;;11.05;71.65;100663.94;5011454;28;20045;-44
2023/11/13 03:30:54;;;;;;;22.13;13.52;;;;;;;10.87;72.40;100669.88;5011623;28;20034;-43
2023/11/13 03:33:20;;;;;;;26.10;13.27;;;;;;;10.93;72.11;100678.63;4993796;28;20073;-44
2023/11/13 03:35:46;;;;;;;22.00;13.18;;;;;;;11.00;71.98;100674.34;5011167;28;20504;-46
2023/11/13 03:38:11;;;;;;;22.73;13.32;;;;;;;10.78;72.99;100672.44;5011387;28;20038;-44
2023/11/13 03:40:36;;;;;;;21.63;13.25;;;;;;;11.07;72.43;100670.94;5010849;28;20073;-44
2023/11/13 03:43:02;;;;;;;23.23;13.10;;;;;;;11.07;72.17;100667.44;5011650;28;20092;-44
2023/11/13 03:45:27;;;;;;;20.58;12.90;;;;;;;10.90;72.71;100659.50;4993331;28;20122;-45
2023/11/13 03:47:52;;;;;;;23.48;13.13;;;;;;;11.08;71.96;100659.66;5011637;28;20388;-44
2023/11/13 03:50:18;;;;;;;21.35;12.90;;;;;;;11.17;72.12;100654.47;5011673;28;20118;-48
2023/11/13 03:52:43;;;;;;;27.75;13.00;;;;;;;10.79;73.68;100643.75;5011360;28;20045;-44
2023/11/13 03:55:09;;;;;;;24.92;13.25;;;;;;;10.77;73.79;100627.22;5010001;28;20042;-46
2023/11/13 03:57:34;;;;;;;24.02;13.63;;;;;;;10.80;73.66;100614.19;5010859;28;20037;-50
2023/11/13 03:59:59;;;;;;;23.00;13.52;;;;;;;11.05;73.42;100614.38;5011737;28;20095;-47
2023/11/13 04:02:26;;;;;;;21.48;12.98;;;;;;;11.32;71.87;100605.00;5013115;28;20034;-45
2023/11/13 04:04:51;;;;;;;23.55;13.43;;;;;;;11.10;72.36;100590.06;5013021;28;20496;-44
2023/11/13 04:07:20;;;;;;;25.67;13.75;;;;;;;11.12;73.51;100584.88;5015472;28;20034;-44
2023/11/13 04:09:46;;;;;;;21.70;13.05;;;;;;;11.26;72.50;100567.56;5014244;28;20038;-45
2023/11/13 04:12:11;;;;;;;26.30;13.75;;;;;;;11.04;73.38;100557.88;5013934;28;20034;-45
2023/11/13 04:14:36;;;;;;;22.98;13.52;;;;;;;11.19;73.13;100548.41;5015103;28;20105;-48
2023/11/13 04:17:03;;;;;;;22.92;13.98;;;;;;;11.40;72.15;100550.25;5012999;28;20120;-47
2023/11/13 04:19:29;;;;;;;25.75;13.82;;;;;;;11.41;72.33;100541.53;5010708;28;20065;-47
2023/11/13 04:21:55;;;;;;;23.63;13.23;;;;;;;11.39;72.62;100536.34;5010829;28;20135;-45
2023/11/13 04:24:21;;;;;;;24.58;13.60;;;;;;;11.34;72.85;100524.97;5010633;28;20080;-46
2023/11/13 04:26:46;;;;;;;25.48;13.57;;;;;;;11.55;72.47;100536.38;5010359;28;20439;-45
2023/11/13 04:29:11;;;;;;;24.48;13.88;;;;;;;11.59;72.15;100551.19;5010566;28;20040;-48
2023/11/13 04:31:37;;;;;;;23.05;13.13;;;;;;;11.61;71.93;100552.94;5010153;28;20038;-45
2023/11/13 04:34:05;;;;;;;24.75;13.50;;;;;;;11.50;72.26;100548.53;5010108;28;20061;-44
2023/11/13 04:36:30;;;;;;;23.50;13.25;;;;;;;11.69;71.88;100542.53;5009896;28;20539;-46
2023/11/13 04:38:56;;;;;;;25.20;14.30;;;;;;;11.67;71.98;100533.81;5010352;28;20061;-45
2023/11/13 04:41:21;;;;;;;26.35;14.32;;;;;;;11.67;72.08;100544.25;5010400;28;20042;-45
2023/11/13 04:43:46;;;;;;;28.25;14.40;;;;;;;11.63;72.24;100543.38;5009728;28;20092;-47
2023/11/13 04:46:15;;;;;;;27.80;14.77;;;;;;;11.74;71.70;100533.88;5010084;28;20097;-44
2023/11/13 04:48:40;;;;;;;26.88;14.30;;;;;;;11.74;72.26;100526.03;5009977;28;20038;-43
2023/11/13 04:51:06;;;;;;;27.60;14.98;;;;;;;11.53;73.14;100525.03;5010148;28;20496;-46
2023/11/13 04:53:32;;;;;;;27.25;14.80;;;;;;;11.51;73.25;100522.47;5009737;28;20484;-45
2023/11/13 04:55:58;;;;;;;29.30;15.25;;;;;;;11.40;74.23;100511.09;5011789;28;20042;-44
2023/11/13 04:58:23;;;;;;;28.40;15.77;;;;;;;11.36;74.12;100512.81;5015061;28;20040;-43
2023/11/13 05:00:49;;;;;;;32.55;15.02;;;;;;;11.54;74.08;100521.56;5010652;28;20041;-48
2023/11/13 05:03:14;;;;;;;28.27;15.00;;;;;;;11.57;73.93;100517.25;5011512;28;20045;-46
2023/11/13 05:05:40;;;;;;;29.13;14.20;;;;;;;11.78;72.76;100521.69;5009491;28;20484;-47
2023/11/13 05:08:05;;;;;;;30.77;15.32;;;;;;;11.69;73.78;100525.13;5009828;28;20030;-46
2023/11/13 05:10:32;;;;;;;31.20;15.32;;;;;;;11.65;73.47;100515.53;5009559;28;20460;-45
2023/11/13 05:12:58;;;;;;;34.28;15.40;;;;;;;11.96;72.73;100510.41;5009725;28;20044;-53
2023/11/13 05:15:23;;;;;;;31.10;15.18;;;;;;;11.95;72.30;100513.91;5009805;28;20049;-50
2023/11/13 05:17:49;;;;;;;32.15;15.30;;;;;;;12.00;72.61;100523.50;5009431;28;20029;-45
2023/11/13 05:20:16;;;;;;;33.90;15.82;;;;;;;12.04;72.59;100513.91;5009723;28;20034;-45
2023/11/13 05:22:41;;;;;;;32.55;15.65;;;;;;;11.77;73.27;100497.31;5011258;28;20500;-45
2023/11/13 05:25:08;;;;;;;35.03;15.57;;;;;;;11.87;73.07;100500.84;5013895;28;20038;-46
2023/11/13 05:27:33;;;;;;;34.33;15.18;;;;;;;12.04;72.39;100501.72;5013093;28;20550;-47
2023/11/13 05:29:58;;;;;;;29.73;14.40;;;;;;;11.94;72.50;100499.13;4996112;28;20155;-47
2023/11/13 05:32:24;;;;;;;32.60;15.15;;;;;;;11.73;73.90;100500.78;5013561;28;20431;-44
2023/11/13 05:34:49;;;;;;;30.90;14.93;;;;;;;11.74;73.18;100493.84;5013107;28;20065;-45
2023/11/13 05:37:15;;;;;;;30.20;15.45;;;;;;;11.55;74.40;100489.38;5013668;28;20048;-45
2023/11/13 05:39:41;;;;;;;37.22;15.90;;;;;;;11.78;73.26;100488.63;5013487;28;20507;-51
2023/11/13 05:42:07;;;;;;;37.42;15.70;;;;;;;11.31;74.95;100478.00;4995866;28;20062;-48
2023/11/13 05:44:35;;;;;;;30.67;15.27;;;;;;;11.63;73.66;100472.03;5012689;28;20143;-45
2023/11/13 05:47:02;;;;;;;32.13;15.63;;;;;;;11.63;74.24;100466.78;5013581;28;20038;-49
2023/11/13 05:49:27;;;;;;;35.55;15.63;;;;;;;11.37;75.54;100456.28;5012050;28;20034;-48
2023/11/13 05:51:52;;;;;;;30.35;16.02;;;;;;;11.82;73.39;100463.41;5013643;28;20428;-44
2023/11/13 05:54:19;;;;;;;31.92;15.15;;;;;;;11.61;74.73;100458.94;5013828;28;20060;-45
2023/11/13 05:56:44;;;;;;;33.47;15.20;;;;;;;11.89;73.72;100456.44;5012905;28;20420;-45
2023/11/13 05:59:10;;;;;;;34.30;15.10;;;;;;;11.72;73.78;100462.44;5013077;28;20041;-48
2023/11/13 06:01:35;;;;;;;31.73;15.00;;;;;;;11.96;73.55;100450.31;5012435;28;20034;-46
2023/11/13 06:04:01;;;;;;;31.50;15.70;;;;;;;12.01;73.36;100457.31;5013199;28;20091;-46
2023/11/13 06:06:28;;;;;;;28.30;15.23;;;;;;;12.05;73.27;100447.75;5012799;28;20570;-45
2023/11/13 06:08:53;;;;;;;29.42;14.95;;;;;;;12.11;72.91;100445.13;5013361;28;20033;-47
2023/11/13 06:11:19;;;;;;;33.05;15.65;;;;;;;12.08;73.34;100437.28;5013135;28;20492;-45
2023/11/13 06:13:46;;;;;;;32.35;14.85;;;;;;;12.04;73.53;100448.59;5012338;28;20099;-47
2023/11/13 06:16:12;;;;;;;35.13;15.27;;;;;;;12.18;73.22;100452.97;5012964;28;20030;-46
2023/11/13 06:18:50;;;;;;;29.85;14.45;;;;;;;12.15;73.33;100442.50;5012449;28;20160;-46
2023/11/13 06:21:16;;;;;;;29.67;13.77;;;;;;;12.24;73.38;100435.53;5012663;28;20457;-45
2023/11/13 06:23:42;;;;;;;31.63;14.27;;;;;;;12.08;73.75;100432.91;5012291;28;20053;-47
2023/11/13 06:26:11;;;;;;;28.98;13.07;;;;;;;12.11;73.79;100426.84;5012743;28;20044;-48
2023/11/13 06:28:38;;;;;;;29.60;14.05;;;;;;;12.11;74.27;100426.84;4978601;28;20038;-44
2023/11/13 06:31:04;;;;;;;30.23;13.95;;;;;;;12.01;74.98;100419.88;5013030;28;20042;-44
2023/11/13 06:33:30;;;;;;;28.42;13.52;;;;;;;12.00;74.50;100419.00;5011602;28;20419;-45
2023/11/13 06:35:55;;;;;;;25.83;12.73;;;;;;;12.09;74.49;100424.22;5012345;28;20042;-47
2023/11/13 06:38:21;;;;;;;26.52;12.93;;;;;;;12.17;74.24;100424.22;5012674;28;20142;-46
2023/11/13 06:40:46;;;;;;;26.90;13.15;;;;;;;12.44;73.48;100413.72;5011627;28;20076;-46
2023/11/13 06:43:12;;;;;;;26.45;12.48;;;;;;;12.37;73.58;100416.38;5012731;28;20042;-45
2023/11/13 06:45:37;;;;;;;27.52;13.02;;;;;;;12.11;75.20;100414.66;5011938;28;20125;-44
2023/11/13 06:48:03;;;;;;;24.58;12.25;;;;;;;12.36;74.32;100402.44;5012853;28;20496;-44
2023/11/13 06:50:28;;;;;;;25.50;12.48;;;;;;;12.54;73.96;100397.16;5012208;28;20044;-45
2023/11/13 06:52:54;;;;;;;27.02;12.63;;;;;;;12.65;73.86;100391.03;5012353;28;20504;-44
2023/11/13 06:55:19;;;;;;;25.50;12.05;;;;;;;12.66;74.29;100387.53;5011991;28;20042;-45
2023/11/13 06:57:45;;;;;;;26.33;12.00;;;;;;;12.68;73.99;100388.41;5011566;28;20034;-45
2023/11/13 07:00:11;;;;;;;26.40;12.35;;;;;;;12.74;74.43;100377.94;5012169;28;20518;-45
2023/11/13 07:02:39;;;;;;;25.88;11.93;;;;;;;12.91;73.92;100369.16;5009596;28;20052;-50
2023/11/13 07:05:10;;;;;;;28.88;12.15;;;;;;;12.95;74.26;100367.38;5012131;28;20084;-49
2023/11/13 07:07:36;;;;;;;28.25;11.82;;;;;;;13.02;74.35;100362.13;5012062;28;20042;-45
2023/11/13 07:10:04;;;;;;;29.27;12.20;;;;;;;13.08;74.33;100366.44;5012659;28;20538;-44
2023/11/13 07:12:29;;;;;;;28.88;11.82;;;;;;;13.14;74.12;100368.19;4995003;28;20034;-45
2023/11/13 07:14:55;;;;;;;30.65;11.95;;;;;;;13.18;74.55;100365.53;5012897;28;20041;-43
2023/11/13 07:17:21;;;;;;;29.67;11.57;;;;;;;13.31;73.96;100369.84;5012706;28;20570;-42
2023/11/13 07:19:46;;;;;;;29.60;11.60;;;;;;;13.29;74.18;100362.91;5012901;28;22019;-44
2023/11/13 07:22:13;;;;;;;25.73;11.43;;;;;;;13.35;74.24;100366.34;5013369;28;20084;-45
2023/11/13 07:24:39;;;;;;;31.98;11.55;;;;;;;13.37;74.35;100355.84;5013144;28;20040;-45
2023/11/13 07:27:05;;;;;;;27.42;11.38;;;;;;;13.41;74.17;100360.19;5012371;28;20121;-45
2023/11/13 07:29:31;;;;;;;24.30;11.10;;;;;;;13.42;74.41;100348.81;5011123;28;20116;-44
2023/11/13 07:31:57;;;;;;;28.17;11.20;;;;;;;13.51;74.07;100348.78;5011982;28;20572;-45
2023/11/13 07:34:22;;;;;;;28.23;11.57;;;;;;;13.38;74.87;100349.72;5011352;28;20042;-46
2023/11/13 07:36:48;;;;;;;30.60;12.20;;;;;;;13.23;75.92;100342.00;5010922;28;20034;-47
2023/11/13 07:39:15;;;;;;;25.85;11.77;;;;;;;13.58;74.85;100334.75;4993769;28;20038;-44
2023/11/13 07:41:40;;;;;;;28.10;11.77;;;;;;;13.66;74.10;100322.44;5011099;28;20042;-44
2023/11/13 07:44:06;;;;;;;27.15;12.15;;;;;;;13.39;75.64;100322.69;5011349;28;20172;-45
2023/11/13 07:46:31;;;;;;;25.38;11.75;;;;;;;13.65;75.52;100322.50;5009869;28;20404;-46
2023/11/13 07:48:57;;;;;;;27.80;12.10;;;;;;;13.85;74.36;100315.31;5011272;28;20038;-48
2023/11/13 07:51:22;;;;;;;26.90;12.27;;;;;;;13.81;74.82;100313.63;5011038;28;20038;-46
2023/11/13 07:53:48;;;;;;;26.35;11.70;;;;;;;13.76;75.34;100308.41;5010315;28;20548;-48
2023/11/13 07:56:14;;;;;;;31.05;12.80;;;;;;;13.91;74.41;100299.53;5011193;28;20045;-44
2023/11/13 07:58:39;;;;;;;30.23;12.77;;;;;;;13.64;75.55;100284.06;5010338;28;20121;-46
2023/11/13 08:01:06;;;;;;;31.23;12.73;;;;;;;13.89;75.15;100284.72;5011187;28;20095;-48
2023/11/13 08:03:31;;;;;;;32.40;12.57;;;;;;;13.89;75.02;100269.00;5010748;28;20037;-45
2023/11/13 08:05:56;;;;;;;27.70;11.32;;;;;;;13.91;74.94;100273.34;5011958;28;20038;-43
2023/11/13 08:08:21;;;;;;;29.10;12.45;;;;;;;13.88;75.51;100254.16;5011505;28;20033;-45
2023/11/13 08:10:47;;;;;;;30.00;12.35;;;;;;;14.02;74.99;100253.16;5011054;28;20044;-45
2023/11/13 08:13:14;;;;;;;26.02;12.20;;;;;;;14.08;74.77;100254.84;5009956;28;20061;-44
2023/11/13 08:15:42;;;;;;;29.42;11.52;;;;;;;14.11;75.05;100249.53;5010278;28;20038;-47
2023/11/13 08:18:13;;;;;;;25.20;11.30;;;;;;;14.15;75.22;100238.13;5011171;28;20034;-46
2023/11/13 08:20:42;;;;;;;27.95;11.70;;;;;;;13.98;75.54;100214.72;4994827;28;20041;-43
2023/11/13 08:23:11;;;;;;;27.30;11.35;;;;;;;14.20;75.54;100208.38;4995877;28;20046;-45
2023/11/13 08:25:37;;;;;;;29.23;11.68;;;;;;;14.29;75.38;100201.28;5010914;28;20064;-49
2023/11/13 08:28:04;;;;;;;31.88;12.15;;;;;;;14.26;75.73;100194.34;5010590;28;20049;-46
2023/11/13 08:30:29;;;;;;;31.90;12.35;;;;;;;14.29;76.51;100183.78;4992436;28;20415;-45
2023/11/13 08:32:55;;;;;;;26.80;11.57;;;;;;;14.27;76.46;100182.09;5010384;28;20030;-40
2023/11/13 08:35:21;;;;;;;29.30;12.40;;;;;;;14.34;76.45;100189.84;5009911;28;20042;-43
2023/11/13 08:37:47;;;;;;;28.52;11.75;;;;;;;14.28;76.97;100183.78;5009887;28;20064;-47
2023/11/13 08:40:23;;;;;;;28.45;11.45;;;;;;;14.40;75.87;100181.06;5010255;28;20080;-48
2023/11/13 08:42:49;;;;;;;26.85;11.40;;;;;;;14.44;76.01;100172.28;4993224;28;20121;-44
2023/11/13 08:45:18;;;;;;;26.15;11.30;;;;;;;14.47;75.35;100170.47;5010039;28;20083;-45
2023/11/13 08:47:48;;;;;;;24.33;10.60;;;;;;;14.62;75.30;100158.91;5009425;28;20447;-47
2023/11/13 08:50:14;;;;;;;26.83;9.88;;;;;;;14.38;76.30;100156.63;4992549;28;20496;-47
2023/11/13 08:52:41;;;;;;;23.75;8.85;;;;;;;14.09;77.32;100141.22;5009768;28;20042;-48
2023/11/13 08:55:10;;;;;;;21.33;8.65;;;;;;;14.39;76.48;100137.38;5009793;28;20033;-45
2023/11/13 08:57:38;;;;;;;21.50;8.02;;;;;;;14.35;76.60;100135.63;5009101;28;20038;-45
2023/11/13 09:00:04;;;;;;;19.83;7.60;;;;;;;14.27;76.64;100133.16;5010033;28;20034;-47
2023/11/13 09:02:30;;;;;;;19.45;6.72;;;;;;;14.33;76.37;100129.56;4983781;28;20516;-48
2023/11/13 09:04:55;;;;;;;19.38;6.32;;;;;;;14.48;75.79;100108.38;5010485;28;20120;-45
2023/11/13 09:07:21;;;;;;;14.95;6.30;;;;;;;14.22;76.56;100101.72;5009679;28;20034;-47
2023/11/13 09:09:46;;;;;;;17.55;6.10;;;;;;;14.45;76.19;100093.59;5009477;28;20037;-50
2023/11/13 09:12:12;;;;;;;12.75;5.65;;;;;;;14.56;76.11;100096.03;5010048;28;20041;-46
2023/11/13 09:14:42;;;;;;;14.82;5.30;;;;;;;14.53;75.94;100107.44;5009332;28;20045;-45
2023/11/13 09:17:12;;;;;;;14.27;5.05;;;;;;;14.38;76.15;100089.31;5009684;28;20131;-46
2023/11/13 09:19:41;;;;;;;11.93;5.28;;;;;;;14.26;76.60;100072.84;5009309;28;20042;-45
2023/11/13 09:22:09;;;;;;;11.80;5.32;;;;;;;13.88;79.16;100066.38;5009970;28;20115;-45
2023/11/13 09:24:38;;;;;;;9.30;4.13;;;;;;;14.39;77.02;100064.84;5009447;28;20108;-46
2023/11/13 09:27:04;;;;;;;11.15;4.10;;;;;;;14.43;76.63;100063.00;5009739;28;20500;-46
2023/11/13 09:29:29;;;;;;;10.25;3.50;;;;;;;14.16;77.19;100043.25;5009538;28;20044;-51
2023/11/13 09:31:55;;;;;;;10.13;3.00;;;;;;;14.06;76.90;100050.41;5009783;28;20485;-46
2023/11/13 09:34:22;;;;;;;7.85;2.58;;;;;;;13.93;77.75;100027.88;5009597;28;20153;-46
2023/11/13 09:36:48;;;;;;;8.05;2.70;;;;;;;14.17;77.40;100027.53;5009116;28;20034;-47
2023/11/13 09:39:13;;;;;;;6.03;2.40;;;;;;;14.22;76.55;100016.97;5009612;28;20558;-46
2023/11/13 09:41:48;;;;;;;8.70;2.30;;;;;;;14.28;75.90;100016.00;5009219;28;20057;-42
2023/11/13 09:44:14;;;;;;;6.07;2.13;;;;;;;13.88;77.99;100019.22;5009529;28;20117;-51
2023/11/13 09:46:42;;;;;;;5.07;1.98;;;;;;;13.93;76.84;100009.53;5009566;28;20046;-48
2023/11/13 09:49:11;;;;;;;7.88;2.13;;;;;;;14.03;76.82;99994.53;5010561;28;20096;-44
2023/11/13 09:51:39;;;;;;;6.35;1.90;;;;;;;14.05;77.26;99988.38;5009794;28;20042;-44
2023/11/13 09:54:06;;;;;;;5.75;1.83;;;;;;;14.00;77.04;99984.97;5010027;28;20042;-47
2023/11/13 09:56:31;;;;;;;4.68;1.75;;;;;;;14.23;75.65;99977.63;5009618;28;20041;-45
2023/11/13 09:58:57;;;;;;;6.82;2.05;;;;;;;13.85;77.67;99968.59;5009471;28;20030;-49
2023/11/13 10:01:23;;;;;;;5.75;2.20;;;;;;;13.85;77.02;99958.97;5009806;28;20450;-45
2023/11/13 10:03:48;;;;;;;6.80;2.42;;;;;;;14.11;75.95;99963.84;5009513;28;20045;-46
2023/11/13 10:06:15;;;;;;;6.35;1.90;;;;;;;14.37;75.38;99964.34;5009815;28;20129;-44
2023/11/13 10:08:49;;;;;;;5.53;2.20;;;;;;;14.25;75.77;99950.53;5010113;28;20034;-46
2023/11/13 10:11:15;;;;;;;4.72;2.10;;;;;;;14.17;76.64;99950.63;5013453;28;20496;-50
2023/11/13 10:13:41;;;;;;;4.40;2.15;;;;;;;14.10;76.89;99935.91;4995182;28;20042;-46
2023/11/13 10:16:18;;;;;;;4.93;2.38;;;;;;;13.80;78.83;99921.50;5013263;28;20187;-44
2023/11/13 10:18:45;;;;;;;6.15;2.63;;;;;;;14.24;77.98;99910.31;5013072;28;20046;-45
2023/11/13 10:21:19;;;;;;;6.78;2.75;;;;;;;13.72;80.08;99894.59;5014094;28;20317;-47
2023/11/13 10:23:44;;;;;;;5.65;2.88;;;;;;;14.13;78.57;99886.94;5012923;28;20409;-44
2023/11/13 10:26:14;;;;;;;5.22;3.10;;;;;;;14.22;78.35;99878.03;5013511;28;20052;-43
2023/11/13 10:28:40;;;;;;;6.97;3.00;;;;;;;14.54;76.80;99872.25;5013800;28;20520;-45
2023/11/13 10:31:17;;;;;;;6.45;3.00;;;;;;;14.69;75.64;99865.84;5013942;28;20048;-48
2023/11/13 10:33:59;;;;;;;7.07;3.22;;;;;;;14.75;75.67;99861.34;5014035;28;20691;-44
2023/11/13 10:36:24;;;;;;;6.93;3.50;;;;;;;14.76;75.23;99855.19;5013004;28;20038;-47
2023/11/13 10:38:51;;;;;;;6.40;3.45;;;;;;;14.33;77.90;99841.16;4987033;28;20037;-45
2023/11/13 10:41:33;;;;;;;7.72;3.60;;;;;;;14.49;77.14;99846.09;5012916;28;20048;-47
2023/11/13 10:43:59;;;;;;;7.38;4.00;;;;;;;14.58;76.46;99839.81;5014088;28;20038;-43
2023/11/13 10:46:36;;;;;;;5.47;3.78;;;;;;;14.86;75.50;99842.75;5013572;28;20092;-44
2023/11/13 10:49:02;;;;;;;7.25;4.10;;;;;;;14.75;75.92;99835.13;5012076;28;20040;-48
2023/11/13 10:51:28;;;;;;;7.38;4.07;;;;;;;14.87;75.89;99813.00;5011729;28;20080;-45
2023/11/13 10:54:00;;;;;;;6.65;4.20;;;;;;;14.88;76.07;99796.38;5011703;28;20065;-43
2023/11/13 10:56:26;;;;;;;8.75;4.65;;;;;;;15.00;76.45;99780.34;5012137;28;20562;-45
2023/11/13 10:58:51;;;;;;;9.20;4.85;;;;;;;15.16;76.04;99771.22;5011615;28;20038;-46
2023/11/13 11:01:22;;;;;;;12.23;5.35;;;;;;;15.17;76.49;99775.59;5012244;28;20033;-45
2023/11/13 11:03:49;;;;;;;12.00;5.50;;;;;;;15.11;76.67;99754.72;5011693;28;20121;-46
2023/11/13 11:06:22;;;;;;;10.52;5.80;;;;;;;14.78;77.81;99737.97;5011960;28;20124;-45
2023/11/13 11:08:50;;;;;;;12.20;5.93;;;;;;;15.30;77.01;99728.91;5011597;28;20374;-47
2023/11/13 11:11:21;;;;;;;12.10;6.15;;;;;;;15.42;76.83;99716.34;5011990;28;20038;-48